sensor_id;sensor_type;location;lat;lon;timestamp;P1;durP1;ratioP1;P2;durP2;ratioP2
73266;SDS011;61495;53.400;7.608;2022-08-19T00:00:09;4.13;;;2.33;;
73266;SDS011;61495;53.400;7.608;2022-08-19T00:02:35;5.65;;;2.80;;
73266;SDS011;61495;53.400;7.608;2022-08-19T00:05:02;4.50;;;2.90;;
73266;SDS011;61495;53.400;7.608;2022-08-19T00:07:28;4.70;;;2.92;;
73266;SDS011;61495;53.400;7.608;2022-08-19T00:09:53;5.30;;;2.78;;
73266;SDS011;61495;53.400;7.608;2022-08-19T00:12:19;7.68;;;3.58;;
73266;SDS011;61495;53.400;7.608;2022-08-19T00:14:45;6.00;;;3.13;;
73266;SDS011;61495;53.400;7.608;2022-08-19T00:17:10;5.55;;;3.17;;
73266;SDS011;61495;53.400;7.608;2022-08-19T00:19:38;5.10;;;2.67;;
73266;SDS011;61495;53.400;7.608;2022-08-19T00:22:07;5.05;;;2.65;;
73266;SDS011;61495;53.400;7.608;2022-08-19T00:24:35;4.57;;;2.45;;
73266;SDS011;61495;53.400;7.608;2022-08-19T00:27:03;4.65;;;2.38;;
73266;SDS011;61495;53.400;7.608;2022-08-19T00:29:29;5.80;;;2.80;;
73266;SDS011;61495;53.400;7.608;2022-08-19T00:31:56;5.03;;;2.85;;
73266;SDS011;61495;53.400;7.608;2022-08-19T00:34:23;6.00;;;3.42;;
73266;SDS011;61495;53.400;7.608;2022-08-19T00:36:54;5.28;;;3.08;;
73266;SDS011;61495;53.400;7.608;2022-08-19T00:39:23;4.30;;;2.53;;
73266;SDS011;61495;53.400;7.608;2022-08-19T00:41:54;4.35;;;2.80;;
73266;SDS011;61495;53.400;7.608;2022-08-19T00:44:26;4.10;;;2.53;;
73266;SDS011;61495;53.400;7.608;2022-08-19T00:49:31;4.07;;;1.50;;
73266;SDS011;61495;53.400;7.608;2022-08-19T00:52:07;3.78;;;1.58;;
73266;SDS011;61495;53.400;7.608;2022-08-19T00:54:38;3.53;;;1.70;;
73266;SDS011;61495;53.400;7.608;2022-08-19T00:57:11;5.40;;;2.05;;
73266;SDS011;61495;53.400;7.608;2022-08-19T00:59:42;5.10;;;2.63;;
73266;SDS011;61495;53.400;7.608;2022-08-19T01:02:11;4.03;;;2.05;;
73266;SDS011;61495;53.400;7.608;2022-08-19T01:04:37;3.40;;;1.80;;
73266;SDS011;61495;53.400;7.608;2022-08-19T01:07:03;4.88;;;1.83;;
73266;SDS011;61495;53.400;7.608;2022-08-19T01:09:29;2.47;;;1.42;;
73266;SDS011;61495;53.400;7.608;2022-08-19T01:11:55;3.53;;;1.50;;
73266;SDS011;61495;53.400;7.608;2022-08-19T01:14:21;5.00;;;2.05;;
73266;SDS011;61495;53.400;7.608;2022-08-19T01:16:48;3.83;;;2.00;;
73266;SDS011;61495;53.400;7.608;2022-08-19T01:19:26;4.05;;;2.03;;
73266;SDS011;61495;53.400;7.608;2022-08-19T01:22:06;4.13;;;2.25;;
73266;SDS011;61495;53.400;7.608;2022-08-19T01:24:42;3.80;;;1.77;;
73266;SDS011;61495;53.400;7.608;2022-08-19T01:27:08;3.08;;;1.65;;
73266;SDS011;61495;53.400;7.608;2022-08-19T01:29:34;4.95;;;2.20;;
73266;SDS011;61495;53.400;7.608;2022-08-19T01:32:04;3.70;;;2.05;;
73266;SDS011;61495;53.400;7.608;2022-08-19T01:34:30;4.40;;;2.50;;
73266;SDS011;61495;53.400;7.608;2022-08-19T01:36:59;5.45;;;2.00;;
73266;SDS011;61495;53.400;7.608;2022-08-19T01:39:30;5.03;;;2.08;;
73266;SDS011;61495;53.400;7.608;2022-08-19T01:41:55;3.83;;;2.08;;
73266;SDS011;61495;53.400;7.608;2022-08-19T01:44:20;5.35;;;2.10;;
73266;SDS011;61495;53.400;7.608;2022-08-19T01:46:49;4.25;;;1.80;;
73266;SDS011;61495;53.400;7.608;2022-08-19T01:49:16;4.85;;;1.50;;
73266;SDS011;61495;53.400;7.608;2022-08-19T01:51:44;3.47;;;1.92;;
73266;SDS011;61495;53.400;7.608;2022-08-19T01:54:11;4.32;;;1.77;;
73266;SDS011;61495;53.400;7.608;2022-08-19T01:56:37;3.80;;;1.25;;
73266;SDS011;61495;53.400;7.608;2022-08-19T01:59:05;2.47;;;1.17;;
73266;SDS011;61495;53.400;7.608;2022-08-19T02:01:35;3.33;;;1.00;;
73266;SDS011;61495;53.400;7.608;2022-08-19T02:04:03;8.00;;;1.75;;
73266;SDS011;61495;53.400;7.608;2022-08-19T02:06:30;4.70;;;2.00;;
73266;SDS011;61495;53.400;7.608;2022-08-19T02:08:55;3.80;;;1.88;;
73266;SDS011;61495;53.400;7.608;2022-08-19T02:11:33;4.18;;;1.85;;
73266;SDS011;61495;53.400;7.608;2022-08-19T02:14:07;4.55;;;1.77;;
73266;SDS011;61495;53.400;7.608;2022-08-19T02:16:36;3.17;;;1.50;;
73266;SDS011;61495;53.400;7.608;2022-08-19T02:19:02;3.67;;;1.67;;
73266;SDS011;61495;53.400;7.608;2022-08-19T02:21:29;4.13;;;1.70;;
73266;SDS011;61495;53.400;7.608;2022-08-19T02:23:55;3.35;;;1.60;;
73266;SDS011;61495;53.400;7.608;2022-08-19T02:26:20;3.60;;;1.42;;
73266;SDS011;61495;53.400;7.608;2022-08-19T02:28:46;4.90;;;2.00;;
73266;SDS011;61495;53.400;7.608;2022-08-19T02:31:17;3.80;;;1.88;;
73266;SDS011;61495;53.400;7.608;2022-08-19T02:33:45;4.13;;;2.03;;
73266;SDS011;61495;53.400;7.608;2022-08-19T02:36:12;4.72;;;2.10;;
73266;SDS011;61495;53.400;7.608;2022-08-19T02:38:45;3.33;;;1.58;;
73266;SDS011;61495;53.400;7.608;2022-08-19T02:41:15;3.72;;;1.70;;
73266;SDS011;61495;53.400;7.608;2022-08-19T02:43:43;4.15;;;1.48;;
73266;SDS011;61495;53.400;7.608;2022-08-19T02:46:32;3.60;;;1.92;;
73266;SDS011;61495;53.400;7.608;2022-08-19T02:49:02;4.38;;;1.90;;
73266;SDS011;61495;53.400;7.608;2022-08-19T02:51:35;4.70;;;1.95;;
73266;SDS011;61495;53.400;7.608;2022-08-19T02:54:07;4.75;;;1.90;;
73266;SDS011;61495;53.400;7.608;2022-08-19T02:56:37;4.25;;;2.10;;
73266;SDS011;61495;53.400;7.608;2022-08-19T02:59:04;3.65;;;1.30;;
73266;SDS011;61495;53.400;7.608;2022-08-19T03:01:33;3.33;;;1.55;;
73266;SDS011;61495;53.400;7.608;2022-08-19T03:04:02;4.53;;;2.30;;
73266;SDS011;61495;53.400;7.608;2022-08-19T03:06:40;4.80;;;2.22;;
73266;SDS011;61495;53.400;7.608;2022-08-19T03:09:07;5.00;;;2.13;;
73266;SDS011;61495;53.400;7.608;2022-08-19T03:11:33;5.43;;;2.10;;
73266;SDS011;61495;53.400;7.608;2022-08-19T03:13:59;3.50;;;1.70;;
73266;SDS011;61495;53.400;7.608;2022-08-19T03:16:26;4.80;;;1.80;;
73266;SDS011;61495;53.400;7.608;2022-08-19T03:18:55;3.05;;;1.60;;
73266;SDS011;61495;53.400;7.608;2022-08-19T03:21:28;3.40;;;1.80;;
73266;SDS011;61495;53.400;7.608;2022-08-19T03:24:04;3.88;;;1.40;;
73266;SDS011;61495;53.400;7.608;2022-08-19T03:26:32;2.92;;;1.40;;
73266;SDS011;61495;53.400;7.608;2022-08-19T03:29:00;4.72;;;2.10;;
73266;SDS011;61495;53.400;7.608;2022-08-19T03:31:28;3.88;;;1.33;;
73266;SDS011;61495;53.400;7.608;2022-08-19T03:33:55;4.88;;;2.35;;
73266;SDS011;61495;53.400;7.608;2022-08-19T03:36:25;5.07;;;2.65;;
73266;SDS011;61495;53.400;7.608;2022-08-19T03:38:53;4.65;;;2.30;;
73266;SDS011;61495;53.400;7.608;2022-08-19T03:41:29;4.55;;;2.25;;
73266;SDS011;61495;53.400;7.608;2022-08-19T03:43:58;6.38;;;3.28;;
73266;SDS011;61495;53.400;7.608;2022-08-19T03:46:25;6.47;;;3.05;;
73266;SDS011;61495;53.400;7.608;2022-08-19T03:48:54;4.53;;;2.40;;
73266;SDS011;61495;53.400;7.608;2022-08-19T03:51:30;4.78;;;2.70;;
73266;SDS011;61495;53.400;7.608;2022-08-19T03:54:10;5.05;;;2.92;;
73266;SDS011;61495;53.400;7.608;2022-08-19T03:56:56;4.88;;;2.38;;
73266;SDS011;61495;53.400;7.608;2022-08-19T03:59:38;5.03;;;2.50;;
73266;SDS011;61495;53.400;7.608;2022-08-19T04:02:06;4.95;;;2.22;;
73266;SDS011;61495;53.400;7.608;2022-08-19T04:04:34;4.60;;;2.08;;
73266;SDS011;61495;53.400;7.608;2022-08-19T04:07:00;5.50;;;2.03;;
73266;SDS011;61495;53.400;7.608;2022-08-19T04:09:25;4.15;;;1.70;;
73266;SDS011;61495;53.400;7.608;2022-08-19T04:11:52;3.90;;;2.05;;
73266;SDS011;61495;53.400;7.608;2022-08-19T04:14:20;4.78;;;1.73;;
73266;SDS011;61495;53.400;7.608;2022-08-19T04:16:49;3.72;;;1.77;;
73266;SDS011;61495;53.400;7.608;2022-08-19T04:19:16;4.18;;;2.15;;
73266;SDS011;61495;53.400;7.608;2022-08-19T04:21:44;4.93;;;2.63;;
73266;SDS011;61495;53.400;7.608;2022-08-19T04:24:11;4.90;;;2.25;;
73266;SDS011;61495;53.400;7.608;2022-08-19T04:26:37;3.95;;;1.88;;
73266;SDS011;61495;53.400;7.608;2022-08-19T04:29:10;3.35;;;1.73;;
73266;SDS011;61495;53.400;7.608;2022-08-19T04:31:44;2.92;;;1.27;;
73266;SDS011;61495;53.400;7.608;2022-08-19T04:34:11;3.72;;;1.90;;
73266;SDS011;61495;53.400;7.608;2022-08-19T04:36:40;3.10;;;1.60;;
73266;SDS011;61495;53.400;7.608;2022-08-19T04:39:13;3.10;;;1.25;;
73266;SDS011;61495;53.400;7.608;2022-08-19T04:41:41;2.97;;;1.30;;
73266;SDS011;61495;53.400;7.608;2022-08-19T04:44:25;3.45;;;1.55;;
73266;SDS011;61495;53.400;7.608;2022-08-19T04:46:51;4.88;;;2.78;;
73266;SDS011;61495;53.400;7.608;2022-08-19T04:49:17;4.18;;;2.22;;
73266;SDS011;61495;53.400;7.608;2022-08-19T04:51:45;5.13;;;2.33;;
73266;SDS011;61495;53.400;7.608;2022-08-19T04:54:17;5.32;;;2.70;;
73266;SDS011;61495;53.400;7.608;2022-08-19T04:56:51;4.90;;;2.42;;
73266;SDS011;61495;53.400;7.608;2022-08-19T04:59:21;3.60;;;1.85;;
73266;SDS011;61495;53.400;7.608;2022-08-19T05:01:46;4.05;;;2.00;;
73266;SDS011;61495;53.400;7.608;2022-08-19T05:04:15;4.10;;;1.77;;
73266;SDS011;61495;53.400;7.608;2022-08-19T05:06:43;3.38;;;1.45;;
73266;SDS011;61495;53.400;7.608;2022-08-19T05:09:19;3.25;;;1.63;;
73266;SDS011;61495;53.400;7.608;2022-08-19T05:11:46;4.60;;;1.80;;
73266;SDS011;61495;53.400;7.608;2022-08-19T05:14:18;4.75;;;2.67;;
73266;SDS011;61495;53.400;7.608;2022-08-19T05:16:45;4.93;;;2.67;;
73266;SDS011;61495;53.400;7.608;2022-08-19T05:19:11;5.38;;;2.67;;
73266;SDS011;61495;53.400;7.608;2022-08-19T05:21:59;5.10;;;2.30;;
73266;SDS011;61495;53.400;7.608;2022-08-19T05:24:43;4.53;;;2.38;;
73266;SDS011;61495;53.400;7.608;2022-08-19T05:27:09;5.80;;;2.80;;
73266;SDS011;61495;53.400;7.608;2022-08-19T05:29:37;4.75;;;2.53;;
73266;SDS011;61495;53.400;7.608;2022-08-19T05:32:03;6.18;;;2.72;;
73266;SDS011;61495;53.400;7.608;2022-08-19T05:34:35;5.30;;;2.65;;
73266;SDS011;61495;53.400;7.608;2022-08-19T05:37:03;3.80;;;1.95;;
73266;SDS011;61495;53.400;7.608;2022-08-19T05:39:30;4.20;;;2.03;;
73266;SDS011;61495;53.400;7.608;2022-08-19T05:41:58;4.97;;;2.35;;
73266;SDS011;61495;53.400;7.608;2022-08-19T05:44:26;4.70;;;2.60;;
73266;SDS011;61495;53.400;7.608;2022-08-19T05:46:57;7.30;;;3.03;;
73266;SDS011;61495;53.400;7.608;2022-08-19T05:49:24;5.07;;;2.85;;
73266;SDS011;61495;53.400;7.608;2022-08-19T05:51:53;5.93;;;2.80;;
73266;SDS011;61495;53.400;7.608;2022-08-19T05:54:20;6.22;;;2.78;;
73266;SDS011;61495;53.400;7.608;2022-08-19T05:56:48;5.78;;;2.97;;
73266;SDS011;61495;53.400;7.608;2022-08-19T05:59:15;5.57;;;3.28;;
73266;SDS011;61495;53.400;7.608;2022-08-19T06:01:43;5.70;;;3.10;;
73266;SDS011;61495;53.400;7.608;2022-08-19T06:04:10;5.07;;;2.90;;
73266;SDS011;61495;53.400;7.608;2022-08-19T06:06:39;5.18;;;3.13;;
73266;SDS011;61495;53.400;7.608;2022-08-19T06:09:07;6.60;;;3.80;;
73266;SDS011;61495;53.400;7.608;2022-08-19T06:11:36;7.55;;;3.53;;
73266;SDS011;61495;53.400;7.608;2022-08-19T06:14:06;8.00;;;4.28;;
73266;SDS011;61495;53.400;7.608;2022-08-19T06:16:37;6.05;;;3.25;;
73266;SDS011;61495;53.400;7.608;2022-08-19T06:19:10;6.45;;;3.63;;
73266;SDS011;61495;53.400;7.608;2022-08-19T06:21:38;9.48;;;4.10;;
73266;SDS011;61495;53.400;7.608;2022-08-19T06:24:08;8.55;;;3.63;;
73266;SDS011;61495;53.400;7.608;2022-08-19T06:26:39;7.88;;;4.25;;
73266;SDS011;61495;53.400;7.608;2022-08-19T06:29:12;8.23;;;4.80;;
73266;SDS011;61495;53.400;7.608;2022-08-19T06:31:43;7.30;;;4.85;;
73266;SDS011;61495;53.400;7.608;2022-08-19T06:34:11;7.50;;;4.75;;
73266;SDS011;61495;53.400;7.608;2022-08-19T06:36:40;7.38;;;4.03;;
73266;SDS011;61495;53.400;7.608;2022-08-19T06:39:14;7.30;;;4.53;;
73266;SDS011;61495;53.400;7.608;2022-08-19T06:41:42;8.63;;;4.88;;
73266;SDS011;61495;53.400;7.608;2022-08-19T06:44:20;8.43;;;4.57;;
73266;SDS011;61495;53.400;7.608;2022-08-19T06:47:01;7.68;;;4.55;;
73266;SDS011;61495;53.400;7.608;2022-08-19T06:49:33;6.82;;;4.20;;
73266;SDS011;61495;53.400;7.608;2022-08-19T06:52:10;6.63;;;4.13;;
73266;SDS011;61495;53.400;7.608;2022-08-19T06:54:53;7.00;;;3.80;;
73266;SDS011;61495;53.400;7.608;2022-08-19T06:57:23;6.82;;;4.00;;
73266;SDS011;61495;53.400;7.608;2022-08-19T06:59:52;6.57;;;3.67;;
73266;SDS011;61495;53.400;7.608;2022-08-19T07:02:21;6.00;;;3.65;;
73266;SDS011;61495;53.400;7.608;2022-08-19T07:04:53;6.15;;;4.22;;
73266;SDS011;61495;53.400;7.608;2022-08-19T07:07:36;6.35;;;3.50;;
73266;SDS011;61495;53.400;7.608;2022-08-19T07:10:09;6.07;;;3.92;;
73266;SDS011;61495;53.400;7.608;2022-08-19T07:12:37;5.88;;;3.80;;
73266;SDS011;61495;53.400;7.608;2022-08-19T07:15:04;8.35;;;4.30;;
73266;SDS011;61495;53.400;7.608;2022-08-19T07:17:47;7.10;;;4.55;;
73266;SDS011;61495;53.400;7.608;2022-08-19T07:20:16;8.23;;;5.25;;
73266;SDS011;61495;53.400;7.608;2022-08-19T07:22:50;7.60;;;4.75;;
73266;SDS011;61495;53.400;7.608;2022-08-19T07:25:16;7.43;;;4.25;;
73266;SDS011;61495;53.400;7.608;2022-08-19T07:27:58;7.43;;;5.55;;
73266;SDS011;61495;53.400;7.608;2022-08-19T07:30:27;7.50;;;4.90;;
73266;SDS011;61495;53.400;7.608;2022-08-19T07:32:54;7.25;;;4.18;;
73266;SDS011;61495;53.400;7.608;2022-08-19T07:35:21;6.50;;;4.15;;
73266;SDS011;61495;53.400;7.608;2022-08-19T07:37:49;8.18;;;4.80;;
73266;SDS011;61495;53.400;7.608;2022-08-19T07:42:48;8.60;;;4.55;;
73266;SDS011;61495;53.400;7.608;2022-08-19T07:45:37;7.80;;;5.07;;
73266;SDS011;61495;53.400;7.608;2022-08-19T07:48:15;7.90;;;5.28;;
73266;SDS011;61495;53.400;7.608;2022-08-19T07:50:44;8.68;;;4.80;;
73266;SDS011;61495;53.400;7.608;2022-08-19T07:53:25;7.47;;;4.75;;
73266;SDS011;61495;53.400;7.608;2022-08-19T07:56:00;9.10;;;4.63;;
73266;SDS011;61495;53.400;7.608;2022-08-19T07:58:34;7.05;;;4.35;;
73266;SDS011;61495;53.400;7.608;2022-08-19T08:01:14;10.05;;;5.25;;
73266;SDS011;61495;53.400;7.608;2022-08-19T08:03:57;6.03;;;4.38;;
73266;SDS011;61495;53.400;7.608;2022-08-19T08:06:44;7.75;;;4.82;;
73266;SDS011;61495;53.400;7.608;2022-08-19T08:09:42;8.27;;;4.30;;
73266;SDS011;61495;53.400;7.608;2022-08-19T08:14:49;7.70;;;3.97;;
73266;SDS011;61495;53.400;7.608;2022-08-19T08:17:22;7.38;;;4.55;;
73266;SDS011;61495;53.400;7.608;2022-08-19T08:19:58;7.88;;;5.38;;
73266;SDS011;61495;53.400;7.608;2022-08-19T08:22:31;6.70;;;4.85;;
73266;SDS011;61495;53.400;7.608;2022-08-19T08:25:16;9.43;;;5.07;;
73266;SDS011;61495;53.400;7.608;2022-08-19T08:27:48;7.18;;;4.47;;
73266;SDS011;61495;53.400;7.608;2022-08-19T08:30:18;7.78;;;4.88;;
73266;SDS011;61495;53.400;7.608;2022-08-19T08:32:49;8.50;;;4.60;;
73266;SDS011;61495;53.400;7.608;2022-08-19T08:35:21;7.75;;;4.75;;
73266;SDS011;61495;53.400;7.608;2022-08-19T08:37:51;7.70;;;4.68;;
73266;SDS011;61495;53.400;7.608;2022-08-19T08:40:33;6.65;;;5.07;;
73266;SDS011;61495;53.400;7.608;2022-08-19T08:48:43;7.78;;;4.32;;
73266;SDS011;61495;53.400;7.608;2022-08-19T08:51:41;8.75;;;5.38;;
73266;SDS011;61495;53.400;7.608;2022-08-19T08:54:16;6.97;;;5.03;;
73266;SDS011;61495;53.400;7.608;2022-08-19T08:56:50;6.53;;;5.25;;
73266;SDS011;61495;53.400;7.608;2022-08-19T08:59:36;6.18;;;4.65;;
73266;SDS011;61495;53.400;7.608;2022-08-19T09:02:17;6.68;;;4.60;;
73266;SDS011;61495;53.400;7.608;2022-08-19T09:05:00;7.72;;;5.65;;
73266;SDS011;61495;53.400;7.608;2022-08-19T09:11:17;8.43;;;4.28;;
73266;SDS011;61495;53.400;7.608;2022-08-19T09:17:30;7.32;;;5.07;;
73266;SDS011;61495;53.400;7.608;2022-08-19T09:20:24;6.25;;;4.15;;
73266;SDS011;61495;53.400;7.608;2022-08-19T09:22:58;9.40;;;5.32;;
73266;SDS011;61495;53.400;7.608;2022-08-19T09:25:31;6.28;;;4.70;;
73266;SDS011;61495;53.400;7.608;2022-08-19T09:28:08;6.35;;;4.78;;
73266;SDS011;61495;53.400;7.608;2022-08-19T09:30:58;7.07;;;5.07;;
73266;SDS011;61495;53.400;7.608;2022-08-19T09:33:50;7.53;;;4.28;;
73266;SDS011;61495;53.400;7.608;2022-08-19T09:36:31;8.52;;;5.22;;
73266;SDS011;61495;53.400;7.608;2022-08-19T09:39:06;6.80;;;5.25;;
73266;SDS011;61495;53.400;7.608;2022-08-19T09:41:58;7.45;;;5.95;;
73266;SDS011;61495;53.400;7.608;2022-08-19T09:45:17;6.28;;;4.28;;
73266;SDS011;61495;53.400;7.608;2022-08-19T09:48:34;7.22;;;5.60;;
73266;SDS011;61495;53.400;7.608;2022-08-19T09:51:40;6.20;;;4.90;;
73266;SDS011;61495;53.400;7.608;2022-08-19T09:55:09;7.53;;;4.10;;
73266;SDS011;61495;53.400;7.608;2022-08-19T09:58:08;7.13;;;4.35;;
73266;SDS011;61495;53.400;7.608;2022-08-19T10:01:06;6.53;;;4.78;;
73266;SDS011;61495;53.400;7.608;2022-08-19T10:03:36;7.20;;;4.90;;
73266;SDS011;61495;53.400;7.608;2022-08-19T10:06:05;7.25;;;5.18;;
73266;SDS011;61495;53.400;7.608;2022-08-19T10:08:44;6.35;;;5.15;;
73266;SDS011;61495;53.400;7.608;2022-08-19T10:11:33;6.32;;;4.78;;
73266;SDS011;61495;53.400;7.608;2022-08-19T10:20:50;6.65;;;4.60;;
73266;SDS011;61495;53.400;7.608;2022-08-19T10:23:38;6.63;;;3.85;;
73266;SDS011;61495;53.400;7.608;2022-08-19T10:29:35;7.13;;;4.72;;
73266;SDS011;61495;53.400;7.608;2022-08-19T10:32:27;7.07;;;4.90;;
73266;SDS011;61495;53.400;7.608;2022-08-19T10:38:33;6.47;;;4.57;;
73266;SDS011;61495;53.400;7.608;2022-08-19T10:41:39;8.43;;;5.35;;
73266;SDS011;61495;53.400;7.608;2022-08-19T10:44:18;6.65;;;4.30;;
73266;SDS011;61495;53.400;7.608;2022-08-19T10:46:58;5.80;;;4.43;;
73266;SDS011;61495;53.400;7.608;2022-08-19T10:49:33;7.30;;;4.43;;
73266;SDS011;61495;53.400;7.608;2022-08-19T10:52:23;5.72;;;3.90;;
73266;SDS011;61495;53.400;7.608;2022-08-19T11:01:49;7.18;;;4.97;;
73266;SDS011;61495;53.400;7.608;2022-08-19T11:04:38;8.63;;;4.63;;
73266;SDS011;61495;53.400;7.608;2022-08-19T11:07:57;6.50;;;4.15;;
73266;SDS011;61495;53.400;7.608;2022-08-19T11:10:30;6.35;;;4.28;;
73266;SDS011;61495;53.400;7.608;2022-08-19T11:13:42;5.40;;;3.50;;
73266;SDS011;61495;53.400;7.608;2022-08-19T11:16:39;6.03;;;3.40;;
73266;SDS011;61495;53.400;7.608;2022-08-19T11:19:16;5.22;;;3.63;;
73266;SDS011;61495;53.400;7.608;2022-08-19T11:25:17;5.78;;;2.83;;
73266;SDS011;61495;53.400;7.608;2022-08-19T11:27:48;4.28;;;3.22;;
73266;SDS011;61495;53.400;7.608;2022-08-19T11:30:19;4.80;;;3.03;;
73266;SDS011;61495;53.400;7.608;2022-08-19T11:33:16;5.85;;;4.03;;
73266;SDS011;61495;53.400;7.608;2022-08-19T11:35:52;5.38;;;3.67;;
73266;SDS011;61495;53.400;7.608;2022-08-19T11:38:40;5.00;;;2.97;;
73266;SDS011;61495;53.400;7.608;2022-08-19T11:45:13;4.15;;;2.83;;
73266;SDS011;61495;53.400;7.608;2022-08-19T11:47:45;4.32;;;2.45;;
73266;SDS011;61495;53.400;7.608;2022-08-19T11:50:35;5.18;;;2.97;;
73266;SDS011;61495;53.400;7.608;2022-08-19T11:53:17;5.03;;;2.90;;
73266;SDS011;61495;53.400;7.608;2022-08-19T11:55:53;4.25;;;2.50;;
73266;SDS011;61495;53.400;7.608;2022-08-19T11:58:45;4.45;;;2.65;;
73266;SDS011;61495;53.400;7.608;2022-08-19T12:01:37;4.20;;;2.60;;
73266;SDS011;61495;53.400;7.608;2022-08-19T12:07:25;3.70;;;2.28;;
73266;SDS011;61495;53.400;7.608;2022-08-19T12:09:56;4.90;;;2.65;;
73266;SDS011;61495;53.400;7.608;2022-08-19T12:12:22;5.03;;;2.75;;
73266;SDS011;61495;53.400;7.608;2022-08-19T12:15:24;5.70;;;2.72;;
73266;SDS011;61495;53.400;7.608;2022-08-19T12:18:01;3.70;;;2.28;;
73266;SDS011;61495;53.400;7.608;2022-08-19T12:20:26;3.75;;;2.20;;
73266;SDS011;61495;53.400;7.608;2022-08-19T12:23:00;4.97;;;2.33;;
73266;SDS011;61495;53.400;7.608;2022-08-19T12:25:33;3.60;;;1.95;;
73266;SDS011;61495;53.400;7.608;2022-08-19T12:28:40;4.82;;;2.30;;
73266;SDS011;61495;53.400;7.608;2022-08-19T12:31:56;4.15;;;2.40;;
73266;SDS011;61495;53.400;7.608;2022-08-19T12:35:00;5.43;;;2.47;;
73266;SDS011;61495;53.400;7.608;2022-08-19T12:37:38;4.47;;;2.20;;
73266;SDS011;61495;53.400;7.608;2022-08-19T12:43:23;3.75;;;2.35;;
73266;SDS011;61495;53.400;7.608;2022-08-19T12:46:03;4.40;;;2.53;;
73266;SDS011;61495;53.400;7.608;2022-08-19T12:49:05;3.33;;;2.10;;
73266;SDS011;61495;53.400;7.608;2022-08-19T12:51:31;4.20;;;3.00;;
73266;SDS011;61495;53.400;7.608;2022-08-19T12:53:57;4.70;;;2.55;;
73266;SDS011;61495;53.400;7.608;2022-08-19T12:56:22;4.60;;;2.63;;
73266;SDS011;61495;53.400;7.608;2022-08-19T12:58:48;6.63;;;3.33;;
73266;SDS011;61495;53.400;7.608;2022-08-19T13:01:15;4.57;;;2.75;;
73266;SDS011;61495;53.400;7.608;2022-08-19T13:03:42;5.40;;;2.67;;
73266;SDS011;61495;53.400;7.608;2022-08-19T13:06:32;3.75;;;2.42;;
73266;SDS011;61495;53.400;7.608;2022-08-19T13:09:01;4.65;;;2.33;;
73266;SDS011;61495;53.400;7.608;2022-08-19T13:11:57;4.38;;;2.20;;
73266;SDS011;61495;53.400;7.608;2022-08-19T13:14:38;3.95;;;2.30;;
73266;SDS011;61495;53.400;7.608;2022-08-19T13:17:12;4.80;;;2.22;;
73266;SDS011;61495;53.400;7.608;2022-08-19T13:19:55;4.13;;;2.58;;
73266;SDS011;61495;53.400;7.608;2022-08-19T13:22:34;5.47;;;2.40;;
73266;SDS011;61495;53.400;7.608;2022-08-19T13:25:05;3.00;;;1.77;;
73266;SDS011;61495;53.400;7.608;2022-08-19T13:30:28;4.07;;;2.22;;
73266;SDS011;61495;53.400;7.608;2022-08-19T13:33:15;4.47;;;2.13;;
73266;SDS011;61495;53.400;7.608;2022-08-19T13:35:58;4.65;;;2.40;;
73266;SDS011;61495;53.400;7.608;2022-08-19T13:38:38;4.03;;;1.88;;
73266;SDS011;61495;53.400;7.608;2022-08-19T13:41:49;3.67;;;2.10;;
73266;SDS011;61495;53.400;7.608;2022-08-19T13:44:18;3.50;;;2.20;;
73266;SDS011;61495;53.400;7.608;2022-08-19T13:50:05;3.97;;;2.40;;
73266;SDS011;61495;53.400;7.608;2022-08-19T13:52:49;4.70;;;2.60;;
73266;SDS011;61495;53.400;7.608;2022-08-19T13:55:23;4.57;;;2.05;;
73266;SDS011;61495;53.400;7.608;2022-08-19T13:57:55;3.65;;;2.03;;
73266;SDS011;61495;53.400;7.608;2022-08-19T14:00:34;4.18;;;2.28;;
73266;SDS011;61495;53.400;7.608;2022-08-19T14:03:12;4.32;;;2.22;;
73266;SDS011;61495;53.400;7.608;2022-08-19T14:05:43;4.43;;;2.50;;
73266;SDS011;61495;53.400;7.608;2022-08-19T14:08:24;3.83;;;2.20;;
73266;SDS011;61495;53.400;7.608;2022-08-19T14:14:31;4.15;;;1.98;;
73266;SDS011;61495;53.400;7.608;2022-08-19T14:17:24;5.28;;;2.33;;
73266;SDS011;61495;53.400;7.608;2022-08-19T14:20:27;6.13;;;2.40;;
73266;SDS011;61495;53.400;7.608;2022-08-19T14:23:16;3.67;;;2.15;;
73266;SDS011;61495;53.400;7.608;2022-08-19T14:25:42;3.85;;;2.03;;
73266;SDS011;61495;53.400;7.608;2022-08-19T14:28:31;3.75;;;2.30;;
73266;SDS011;61495;53.400;7.608;2022-08-19T14:31:20;3.72;;;2.03;;
73266;SDS011;61495;53.400;7.608;2022-08-19T14:33:50;3.58;;;2.17;;
73266;SDS011;61495;53.400;7.608;2022-08-19T14:36:23;3.63;;;2.22;;
73266;SDS011;61495;53.400;7.608;2022-08-19T14:38:57;4.55;;;2.30;;
73266;SDS011;61495;53.400;7.608;2022-08-19T14:41:25;4.55;;;2.28;;
73266;SDS011;61495;53.400;7.608;2022-08-19T14:43:56;4.30;;;2.30;;
73266;SDS011;61495;53.400;7.608;2022-08-19T14:46:31;3.70;;;2.30;;
73266;SDS011;61495;53.400;7.608;2022-08-19T14:49:09;3.35;;;1.92;;
73266;SDS011;61495;53.400;7.608;2022-08-19T14:51:34;3.72;;;2.55;;
73266;SDS011;61495;53.400;7.608;2022-08-19T14:54:03;4.55;;;2.78;;
73266;SDS011;61495;53.400;7.608;2022-08-19T14:56:31;3.60;;;2.40;;
73266;SDS011;61495;53.400;7.608;2022-08-19T14:59:03;4.20;;;2.20;;
73266;SDS011;61495;53.400;7.608;2022-08-19T15:01:51;3.75;;;2.28;;
73266;SDS011;61495;53.400;7.608;2022-08-19T15:04:21;3.38;;;2.35;;
73266;SDS011;61495;53.400;7.608;2022-08-19T15:06:52;3.67;;;2.33;;
73266;SDS011;61495;53.400;7.608;2022-08-19T15:09:18;3.78;;;2.17;;
73266;SDS011;61495;53.400;7.608;2022-08-19T15:11:43;3.92;;;2.53;;
73266;SDS011;61495;53.400;7.608;2022-08-19T15:14:22;3.70;;;2.22;;
73266;SDS011;61495;53.400;7.608;2022-08-19T15:17:22;4.00;;;2.50;;
73266;SDS011;61495;53.400;7.608;2022-08-19T15:22:28;4.35;;;2.63;;
73266;SDS011;61495;53.400;7.608;2022-08-19T15:24:57;5.47;;;2.50;;
73266;SDS011;61495;53.400;7.608;2022-08-19T15:27:26;4.85;;;2.90;;
73266;SDS011;61495;53.400;7.608;2022-08-19T15:29:51;3.80;;;2.50;;
73266;SDS011;61495;53.400;7.608;2022-08-19T15:32:17;3.83;;;2.38;;
73266;SDS011;61495;53.400;7.608;2022-08-19T15:34:48;4.22;;;2.60;;
73266;SDS011;61495;53.400;7.608;2022-08-19T15:37:23;4.05;;;2.47;;
73266;SDS011;61495;53.400;7.608;2022-08-19T15:39:49;3.83;;;2.55;;
73266;SDS011;61495;53.400;7.608;2022-08-19T15:42:17;7.25;;;4.88;;
73266;SDS011;61495;53.400;7.608;2022-08-19T15:44:46;6.10;;;3.97;;
73266;SDS011;61495;53.400;7.608;2022-08-19T15:47:18;7.70;;;4.97;;
73266;SDS011;61495;53.400;7.608;2022-08-19T15:49:46;9.45;;;5.10;;
73266;SDS011;61495;53.400;7.608;2022-08-19T15:52:17;10.18;;;7.22;;
73266;SDS011;61495;53.400;7.608;2022-08-19T15:54:45;9.02;;;5.90;;
73266;SDS011;61495;53.400;7.608;2022-08-19T15:57:10;10.13;;;5.45;;
73266;SDS011;61495;53.400;7.608;2022-08-19T15:59:47;7.35;;;5.10;;
73266;SDS011;61495;53.400;7.608;2022-08-19T16:02:32;8.02;;;5.30;;
73266;SDS011;61495;53.400;7.608;2022-08-19T16:05:20;7.68;;;5.57;;
73266;SDS011;61495;53.400;7.608;2022-08-19T16:08:05;7.78;;;5.32;;
73266;SDS011;61495;53.400;7.608;2022-08-19T16:10:34;8.48;;;5.43;;
73266;SDS011;61495;53.400;7.608;2022-08-19T16:13:01;8.02;;;5.35;;
73266;SDS011;61495;53.400;7.608;2022-08-19T16:15:30;7.22;;;4.95;;
73266;SDS011;61495;53.400;7.608;2022-08-19T16:17:57;8.02;;;5.68;;
73266;SDS011;61495;53.400;7.608;2022-08-19T16:20:26;7.57;;;5.97;;
73266;SDS011;61495;53.400;7.608;2022-08-19T16:22:52;9.50;;;6.78;;
73266;SDS011;61495;53.400;7.608;2022-08-19T16:25:17;9.20;;;6.85;;
73266;SDS011;61495;53.400;7.608;2022-08-19T16:27:42;9.63;;;6.88;;
73266;SDS011;61495;53.400;7.608;2022-08-19T16:30:08;8.60;;;7.47;;
73266;SDS011;61495;53.400;7.608;2022-08-19T16:32:34;11.30;;;8.60;;
73266;SDS011;61495;53.400;7.608;2022-08-19T16:35:02;9.10;;;6.75;;
73266;SDS011;61495;53.400;7.608;2022-08-19T16:37:29;11.02;;;7.80;;